createdAt,value
2019-03-21T00:00:55.764Z,16.35
2019-03-21T00:02:01.842Z,16.40
2019-03-21T00:03:06.817Z,15.20
2019-03-21T00:04:13.564Z,15.78
2019-03-21T00:05:18.571Z,16.27
2019-03-21T00:06:23.496Z,16.50
2019-03-21T00:07:28.381Z,15.90
2019-03-21T00:08:33.321Z,17.90
2019-03-21T00:09:38.785Z,15.33
2019-03-21T00:11:18.007Z,17.43
2019-03-21T00:12:22.867Z,15.70
2019-03-21T00:13:27.848Z,17.60
2019-03-21T00:15:00.512Z,16.35
2019-03-21T00:16:07.253Z,16.30
2019-03-21T00:17:12.452Z,16.95
2019-03-21T00:18:18.134Z,17.17
2019-03-21T00:19:23.206Z,17.03
2019-03-21T00:20:28.105Z,17.42
2019-03-21T00:21:33.054Z,16.63
2019-03-21T00:22:37.969Z,17.60
2019-03-21T00:23:43.087Z,15.87
2019-03-21T00:24:48.024Z,17.13
2019-03-21T00:25:53.096Z,16.03
2019-03-21T00:26:58.062Z,16.95
2019-03-21T00:28:03.002Z,16.80
2019-03-21T00:29:09.398Z,16.83
2019-03-21T00:30:18.532Z,16.77
2019-03-21T00:31:23.377Z,17.00
2019-03-21T00:32:28.342Z,17.23
2019-03-21T00:33:33.233Z,17.43
2019-03-21T00:34:38.388Z,17.48
2019-03-21T00:35:43.416Z,17.15
2019-03-21T00:36:48.413Z,17.37
2019-03-21T00:37:53.440Z,17.23
2019-03-21T00:38:58.318Z,17.03
2019-03-21T00:40:03.940Z,17.48
2019-03-21T00:41:08.947Z,16.60
2019-03-21T00:42:13.830Z,18.00
2019-03-21T00:43:18.692Z,18.05
2019-03-21T00:44:23.641Z,17.87
2019-03-21T00:45:28.675Z,16.90
2019-03-21T00:46:33.584Z,16.77
2019-03-21T00:47:38.420Z,17.43
2019-03-21T00:48:43.344Z,17.30
2019-03-21T00:49:48.509Z,18.52
2019-03-21T00:50:53.432Z,17.60
2019-03-21T00:51:58.347Z,16.77
2019-03-21T00:53:03.591Z,17.63
2019-03-21T00:54:09.219Z,17.53
2019-03-21T00:55:14.371Z,16.50
2019-03-21T00:56:19.261Z,17.03
2019-03-21T00:57:24.134Z,16.67
2019-03-21T00:58:29.028Z,17.27
2019-03-21T00:59:33.952Z,16.83
2019-03-21T01:00:42.424Z,17.65
2019-03-21T01:01:47.323Z,17.23
2019-03-21T01:02:52.363Z,16.93
2019-03-21T01:03:57.244Z,17.43
2019-03-21T01:05:02.360Z,16.15
2019-03-21T01:06:07.555Z,16.90
2019-03-21T01:07:12.516Z,17.40
2019-03-21T01:08:17.395Z,17.55
2019-03-21T01:09:22.273Z,16.97
2019-03-21T01:10:27.320Z,17.47
2019-03-21T01:11:32.234Z,16.90
2019-03-21T01:12:37.096Z,16.87
2019-03-21T01:13:42.014Z,15.10
2019-03-21T01:14:46.927Z,15.83
2019-03-21T01:15:51.874Z,17.43
2019-03-21T01:16:56.766Z,16.43
2019-03-21T01:18:01.648Z,16.40
2019-03-21T01:19:06.501Z,17.13
2019-03-21T01:20:13.324Z,16.65
2019-03-21T01:21:18.264Z,16.47
2019-03-21T01:22:23.161Z,16.70
2019-03-21T01:23:28.030Z,15.93
2019-03-21T01:24:32.907Z,15.67
2019-03-21T01:25:41.167Z,16.30
2019-03-21T01:26:46.014Z,16.40
2019-03-21T01:27:50.933Z,16.77
2019-03-21T01:28:55.825Z,16.27
2019-03-21T01:30:00.759Z,16.00
2019-03-21T01:31:05.634Z,15.73
2019-03-21T01:32:11.013Z,16.10
2019-03-21T01:33:15.906Z,15.63
2019-03-21T01:34:20.779Z,15.13
2019-03-21T01:35:25.651Z,16.63
2019-03-21T01:36:30.500Z,15.33
2019-03-21T01:37:35.472Z,14.87
2019-03-21T01:38:43.091Z,15.83
2019-03-21T01:39:47.960Z,15.50
2019-03-21T01:40:53.048Z,15.33
2019-03-21T01:41:57.985Z,15.20
2019-03-21T01:43:05.016Z,15.40
2019-03-21T01:44:13.023Z,16.00
2019-03-21T01:45:19.679Z,15.10
2019-03-21T01:46:24.676Z,14.40
2019-03-21T01:47:29.629Z,14.37
2019-03-21T01:48:35.403Z,15.37
2019-03-21T01:49:40.368Z,14.37
2019-03-21T01:50:45.690Z,14.30
2019-03-21T01:51:50.855Z,15.43
2019-03-21T01:52:55.771Z,14.23
2019-03-21T01:54:00.759Z,15.67
2019-03-21T01:55:05.796Z,13.73
2019-03-21T01:56:10.918Z,14.35
2019-03-21T01:57:16.065Z,14.20
2019-03-21T01:58:21.226Z,14.27
2019-03-21T01:59:26.070Z,13.73
2019-03-21T02:00:33.460Z,14.43
2019-03-21T02:01:38.512Z,14.47
2019-03-21T02:02:43.766Z,13.90
2019-03-21T02:03:48.621Z,14.00
2019-03-21T02:04:53.562Z,15.20
2019-03-21T02:05:58.624Z,13.87
2019-03-21T02:07:03.474Z,15.57
2019-03-21T02:08:08.481Z,15.20
2019-03-21T02:09:13.614Z,13.67
2019-03-21T02:10:18.583Z,15.13
2019-03-21T02:11:23.628Z,14.83
2019-03-21T02:12:28.733Z,14.93
2019-03-21T02:13:33.862Z,15.03
2019-03-21T02:14:38.762Z,14.43
2019-03-21T02:15:43.703Z,14.60
2019-03-21T02:16:48.578Z,15.60
2019-03-21T02:17:53.700Z,14.27
2019-03-21T02:18:58.605Z,15.83
2019-03-21T02:20:03.496Z,13.70
2019-03-21T02:21:08.380Z,13.90
2019-03-21T02:22:15.999Z,14.30
2019-03-21T02:23:20.936Z,14.87
2019-03-21T02:24:25.860Z,14.17
2019-03-21T02:25:30.960Z,14.67
2019-03-21T02:26:35.805Z,14.50
2019-03-21T02:27:40.728Z,14.00
2019-03-21T02:28:45.655Z,14.27
2019-03-21T02:29:50.982Z,14.70
2019-03-21T02:30:55.961Z,14.57
2019-03-21T02:32:00.869Z,14.73
2019-03-21T02:33:12.356Z,13.97
2019-03-21T02:34:17.330Z,13.77
2019-03-21T02:35:22.240Z,14.43
2019-03-21T02:36:27.398Z,13.13
2019-03-21T02:37:32.933Z,14.47
2019-03-21T02:38:37.965Z,14.53
2019-03-21T02:39:43.025Z,13.93
2019-03-21T02:40:47.958Z,15.60
2019-03-21T02:41:52.951Z,14.17
2019-03-21T02:42:58.002Z,14.67
2019-03-21T02:44:02.995Z,15.73
2019-03-21T02:45:09.778Z,14.63
2019-03-21T02:46:14.879Z,14.80
2019-03-21T02:47:19.831Z,14.40
2019-03-21T02:48:24.812Z,14.43
2019-03-21T02:49:29.694Z,15.20
2019-03-21T02:50:34.743Z,14.53
2019-03-21T02:51:40.175Z,14.50
2019-03-21T02:52:45.113Z,13.93
2019-03-21T02:53:50.002Z,14.03
2019-03-21T02:54:54.958Z,14.73
2019-03-21T02:55:59.863Z,13.73
2019-03-21T02:57:04.910Z,14.17
2019-03-21T02:58:10.257Z,13.73
2019-03-21T02:59:15.182Z,15.73
2019-03-21T03:00:21.731Z,15.17
2019-03-21T03:01:26.620Z,14.00
2019-03-21T03:02:31.608Z,14.93
2019-03-21T03:03:36.749Z,14.63
2019-03-21T03:04:41.865Z,14.03
2019-03-21T03:05:46.897Z,14.80
2019-03-21T03:06:52.040Z,13.87
2019-03-21T03:07:57.014Z,14.07
2019-03-21T03:09:01.967Z,13.60
2019-03-21T03:10:09.073Z,14.60
2019-03-21T03:11:14.245Z,14.87
2019-03-21T03:12:19.130Z,15.50
2019-03-21T03:13:24.008Z,14.07
2019-03-21T03:14:29.042Z,14.53
2019-03-21T03:15:34.156Z,14.53
2019-03-21T03:16:39.329Z,14.80
2019-03-21T03:17:44.176Z,15.05
2019-03-21T03:18:49.120Z,15.03
2019-03-21T03:19:53.984Z,14.80
2019-03-21T03:20:58.811Z,14.37
2019-03-21T03:22:03.675Z,14.40
2019-03-21T03:23:08.989Z,14.57
2019-03-21T03:24:14.044Z,14.87
2019-03-21T03:25:19.012Z,14.37
2019-03-21T03:26:24.111Z,15.93
2019-03-21T03:27:29.021Z,13.90
2019-03-21T03:28:34.145Z,15.67
2019-03-21T03:29:39.030Z,14.63
2019-03-21T03:30:43.962Z,14.50
2019-03-21T03:31:48.929Z,14.97
2019-03-21T03:32:57.324Z,15.90
2019-03-21T03:34:02.315Z,16.10
2019-03-21T03:35:08.985Z,14.83
2019-03-21T03:36:14.341Z,15.43
2019-03-21T03:37:19.215Z,15.83
2019-03-21T03:38:24.112Z,16.40
2019-03-21T03:39:29.032Z,15.40
2019-03-21T03:40:36.939Z,15.30
2019-03-21T03:41:41.847Z,15.77
2019-03-21T03:42:47.025Z,15.90
2019-03-21T03:43:51.910Z,16.57
2019-03-21T03:44:56.742Z,15.43
2019-03-21T03:46:01.742Z,16.30
2019-03-21T03:47:06.864Z,16.33
2019-03-21T03:48:11.702Z,15.93
2019-03-21T03:49:16.602Z,16.23
2019-03-21T03:50:21.636Z,15.27
2019-03-21T03:51:26.667Z,15.23
2019-03-21T03:52:31.588Z,17.20
2019-03-21T03:53:36.572Z,17.47
2019-03-21T03:54:41.703Z,15.77
2019-03-21T03:55:46.795Z,15.37
2019-03-21T03:56:51.697Z,15.60
2019-03-21T03:57:57.425Z,16.20
2019-03-21T03:59:02.844Z,16.23
2019-03-21T04:00:09.854Z,15.93
2019-03-21T04:01:14.826Z,16.47
2019-03-21T04:02:19.689Z,16.70
2019-03-21T04:03:24.722Z,16.80
2019-03-21T04:04:29.884Z,15.00
2019-03-21T04:05:34.763Z,16.03
2019-03-21T04:06:39.671Z,16.43
2019-03-21T04:07:44.559Z,16.80
2019-03-21T04:08:49.587Z,16.90
2019-03-21T04:09:54.583Z,15.80
2019-03-21T04:10:59.574Z,16.13
2019-03-21T04:12:04.496Z,16.80
2019-03-21T04:13:09.424Z,17.17
2019-03-21T04:14:14.315Z,16.33
2019-03-21T04:15:19.184Z,17.50
2019-03-21T04:16:24.073Z,16.87
2019-03-21T04:17:28.991Z,16.17
2019-03-21T04:18:33.859Z,16.60
2019-03-21T04:19:38.746Z,16.47
2019-03-21T04:20:44.930Z,17.27
2019-03-21T04:21:49.914Z,16.87
2019-03-21T04:22:55.117Z,16.50
2019-03-21T04:24:00.287Z,17.87
2019-03-21T04:25:05.373Z,17.40
2019-03-21T04:26:19.540Z,17.13
2019-03-21T04:27:24.541Z,17.53
2019-03-21T04:28:29.718Z,16.30
2019-03-21T04:29:34.607Z,17.40
2019-03-21T04:30:39.544Z,18.03
2019-03-21T04:31:44.715Z,17.77
2019-03-21T04:32:49.640Z,17.63
2019-03-21T04:33:56.052Z,17.77
2019-03-21T04:35:00.915Z,17.40
2019-03-21T04:36:05.868Z,18.20
2019-03-21T04:37:10.793Z,17.60
2019-03-21T04:38:15.704Z,18.33
2019-03-21T04:39:20.651Z,18.63
2019-03-21T04:40:25.593Z,17.70
2019-03-21T04:41:30.497Z,17.20
2019-03-21T04:42:35.464Z,16.93
2019-03-21T04:43:40.310Z,18.10
2019-03-21T04:44:45.449Z,17.47
2019-03-21T04:45:50.394Z,18.90
2019-03-21T04:46:55.250Z,17.83
2019-03-21T04:48:00.201Z,17.83
2019-03-21T04:49:05.332Z,18.57
2019-03-21T04:50:12.728Z,17.97
2019-03-21T04:51:17.759Z,18.10
2019-03-21T04:52:22.647Z,18.40
2019-03-21T04:53:27.610Z,17.90
2019-03-21T04:54:32.621Z,19.83
2019-03-21T04:55:37.593Z,17.80
2019-03-21T04:56:42.516Z,19.37
2019-03-21T04:57:47.413Z,18.63
2019-03-21T04:58:52.318Z,18.57
2019-03-21T04:59:57.158Z,18.77
2019-03-21T05:01:02.104Z,18.37
2019-03-21T05:02:07.117Z,19.00
2019-03-21T05:03:12.137Z,18.20
2019-03-21T05:04:17.088Z,17.03
2019-03-21T05:05:22.046Z,19.07
2019-03-21T05:06:26.938Z,18.33
2019-03-21T05:07:31.861Z,18.27
2019-03-21T05:08:36.746Z,18.70
2019-03-21T05:09:41.861Z,18.63
2019-03-21T05:10:46.727Z,18.27
2019-03-21T05:11:51.682Z,17.53
2019-03-21T05:12:56.554Z,19.43
2019-03-21T05:14:01.537Z,18.40
2019-03-21T05:15:08.375Z,18.27
2019-03-21T05:16:14.862Z,18.30
2019-03-21T05:17:20.152Z,18.53
2019-03-21T05:18:31.766Z,17.30
2019-03-21T05:19:36.788Z,18.00
2019-03-21T05:20:41.733Z,18.60
2019-03-21T05:21:46.976Z,17.60
2019-03-21T05:22:52.046Z,18.53
2019-03-21T05:23:57.061Z,17.87
2019-03-21T05:25:02.013Z,16.50
2019-03-21T05:26:07.141Z,16.70
2019-03-21T05:27:12.151Z,17.43
2019-03-21T05:28:17.130Z,17.10
2019-03-21T05:29:22.165Z,18.53
2019-03-21T05:30:34.116Z,17.10
2019-03-21T05:31:39.069Z,17.23
2019-03-21T05:32:43.949Z,16.70
2019-03-21T05:33:48.961Z,15.40
2019-03-21T05:34:53.859Z,17.20
2019-03-21T05:35:58.811Z,16.23
2019-03-21T05:37:03.730Z,16.30
2019-03-21T05:38:08.669Z,16.23
2019-03-21T05:39:13.872Z,17.00
2019-03-21T05:40:18.955Z,17.67
2019-03-21T05:41:24.005Z,17.17
2019-03-21T05:42:29.572Z,15.93
2019-03-21T05:43:41.660Z,16.27
2019-03-21T05:44:46.785Z,16.23
2019-03-21T05:45:51.677Z,17.73
2019-03-21T05:46:56.644Z,16.17
2019-03-21T05:48:01.555Z,15.80
2019-03-21T05:49:06.578Z,16.27
2019-03-21T05:50:14.967Z,16.93
2019-03-21T05:51:19.583Z,17.07
2019-03-21T05:52:24.524Z,15.27
2019-03-21T05:53:29.385Z,15.77
2019-03-21T05:54:34.422Z,16.67
2019-03-21T05:55:39.399Z,15.90
2019-03-21T05:56:44.281Z,15.90
2019-03-21T05:57:49.168Z,15.93
2019-03-21T05:58:54.439Z,16.50
2019-03-21T05:59:59.356Z,16.73
2019-03-21T06:01:04.607Z,15.97
2019-03-21T06:02:09.510Z,15.57
2019-03-21T06:03:27.257Z,15.10
2019-03-21T06:04:32.359Z,15.97
2019-03-21T06:05:37.510Z,15.43
2019-03-21T06:06:49.547Z,15.03
2019-03-21T06:08:09.975Z,17.00
2019-03-21T06:09:17.112Z,16.93
2019-03-21T06:10:22.518Z,16.60
2019-03-21T06:11:27.503Z,15.40
2019-03-21T06:12:41.634Z,16.13
2019-03-21T06:13:46.725Z,15.83
2019-03-21T06:14:55.162Z,15.33
2019-03-21T06:18:12.659Z,14.73
2019-03-21T06:19:49.965Z,15.27
2019-03-21T06:21:03.919Z,14.93
2019-03-21T06:22:49.470Z,15.53
2019-03-21T06:24:36.470Z,15.60
2019-03-21T06:26:14.956Z,15.40
2019-03-21T06:27:36.866Z,15.70
2019-03-21T06:28:41.871Z,16.10
2019-03-21T06:29:47.690Z,15.03
2019-03-21T06:30:52.685Z,15.43
2019-03-21T06:31:57.577Z,15.57
2019-03-21T06:33:02.524Z,15.73
2019-03-21T06:34:07.390Z,16.53
2019-03-21T06:35:22.389Z,17.27
2019-03-21T06:36:27.346Z,14.87
2019-03-21T06:37:32.390Z,16.53
2019-03-21T06:38:37.319Z,15.70
2019-03-21T06:39:42.272Z,15.33
2019-03-21T06:40:47.254Z,15.78
2019-03-21T06:41:52.153Z,15.57
2019-03-21T06:42:57.033Z,14.43
2019-03-21T06:44:01.976Z,16.02
2019-03-21T06:45:06.941Z,14.53
2019-03-21T06:46:12.128Z,13.70
2019-03-21T06:47:17.109Z,14.73
2019-03-21T06:48:22.300Z,14.60
2019-03-21T06:49:27.162Z,15.10
2019-03-21T06:50:32.035Z,16.55
2019-03-21T06:51:36.932Z,14.95
2019-03-21T06:52:41.825Z,13.65
2019-03-21T06:53:46.796Z,15.23
2019-03-21T06:54:52.567Z,14.03
2019-03-21T06:55:58.224Z,13.62
2019-03-21T06:57:04.066Z,14.47
2019-03-21T06:58:09.689Z,15.38
2019-03-21T06:59:15.219Z,13.13
2019-03-21T07:00:20.860Z,14.30
2019-03-21T07:01:26.443Z,13.20
2019-03-21T07:02:31.627Z,13.72
2019-03-21T07:03:37.247Z,14.60
2019-03-21T07:04:42.794Z,14.47
2019-03-21T07:05:48.470Z,13.98
2019-03-21T07:06:54.111Z,14.28
2019-03-21T07:07:59.998Z,14.15
2019-03-21T07:09:07.762Z,14.00
2019-03-21T07:10:14.091Z,14.10
2019-03-21T07:11:19.767Z,13.95
2019-03-21T07:12:25.370Z,14.18
2019-03-21T07:13:32.048Z,14.55
2019-03-21T07:14:37.616Z,14.13
2019-03-21T07:15:43.123Z,15.10
2019-03-21T07:16:59.808Z,14.45
2019-03-21T07:17:55.973Z,15.45
2019-03-21T07:19:01.536Z,15.23
2019-03-21T07:20:07.798Z,14.47
2019-03-21T07:21:13.346Z,13.80
2019-03-21T07:22:18.728Z,14.35
2019-03-21T07:23:24.024Z,14.98
2019-03-21T07:24:29.270Z,14.38
2019-03-21T07:25:34.421Z,14.63
2019-03-21T07:26:39.706Z,14.25
2019-03-21T07:27:46.728Z,15.10
2019-03-21T07:28:51.957Z,14.40
2019-03-21T07:29:57.057Z,14.53
2019-03-21T07:31:02.500Z,14.35
2019-03-21T07:32:07.614Z,15.63
2019-03-21T07:33:13.011Z,15.03
2019-03-21T07:34:18.980Z,15.35
2019-03-21T07:35:24.095Z,15.35
2019-03-21T07:36:29.179Z,16.10
2019-03-21T07:37:34.335Z,13.83
2019-03-21T07:38:39.267Z,14.93
2019-03-21T07:39:44.206Z,14.43
2019-03-21T07:40:49.153Z,15.25
2019-03-21T07:41:54.129Z,14.73
2019-03-21T07:42:59.115Z,14.63
2019-03-21T07:44:04.279Z,14.50
2019-03-21T07:45:09.737Z,14.18
2019-03-21T07:46:15.063Z,14.47
2019-03-21T07:47:19.973Z,14.95
2019-03-21T07:48:24.932Z,14.38
2019-03-21T07:49:29.880Z,14.83
2019-03-21T07:50:34.810Z,14.23
2019-03-21T07:51:40.059Z,13.25
2019-03-21T07:52:44.944Z,15.50
2019-03-21T07:53:49.945Z,15.83
2019-03-21T07:54:55.166Z,15.43
2019-03-21T07:56:00.295Z,13.50
2019-03-21T07:57:05.259Z,14.73
2019-03-21T07:58:10.318Z,14.00
2019-03-21T07:59:15.469Z,14.33
2019-03-21T08:00:20.386Z,14.65
2019-03-21T08:01:25.306Z,14.55
2019-03-21T08:02:30.396Z,15.18
2019-03-21T08:03:35.436Z,15.28
2019-03-21T08:04:40.414Z,13.95
2019-03-21T08:05:45.525Z,14.23
2019-03-21T08:06:50.374Z,14.50
2019-03-21T08:07:55.286Z,14.98
2019-03-21T08:09:00.271Z,13.58
2019-03-21T08:10:06.463Z,15.40
2019-03-21T08:11:11.605Z,13.53
2019-03-21T08:12:16.646Z,14.00
2019-03-21T08:13:21.684Z,13.60
2019-03-21T08:14:26.663Z,14.30
2019-03-21T08:15:31.630Z,14.40
2019-03-21T08:16:36.658Z,14.20
2019-03-21T08:17:41.621Z,13.60
2019-03-21T08:18:46.604Z,14.23
2019-03-21T08:19:51.797Z,13.78
2019-03-21T08:20:59.925Z,14.10
2019-03-21T08:22:03.517Z,14.05
2019-03-21T08:23:08.573Z,13.53
2019-03-21T08:24:13.653Z,14.35
2019-03-21T08:25:18.647Z,15.00
2019-03-21T08:26:23.934Z,14.85
2019-03-21T08:27:28.922Z,14.47
2019-03-21T08:28:34.034Z,15.20
2019-03-21T08:29:39.063Z,14.07
2019-03-21T08:31:14.379Z,14.28
2019-03-21T08:32:19.377Z,15.03
2019-03-21T08:33:24.515Z,14.60
2019-03-21T08:34:29.442Z,14.43
2019-03-21T08:35:34.343Z,13.90
2019-03-21T08:36:40.115Z,13.75
2019-03-21T08:37:45.149Z,14.05
2019-03-21T08:38:50.161Z,14.90
2019-03-21T08:39:55.200Z,13.53
2019-03-21T08:41:00.360Z,14.60
2019-03-21T08:42:05.337Z,13.13
2019-03-21T08:43:10.428Z,13.65
2019-03-21T08:44:15.474Z,13.95
2019-03-21T08:45:20.641Z,13.68
2019-03-21T08:46:25.665Z,14.05
2019-03-21T08:47:30.723Z,13.38
2019-03-21T08:48:35.998Z,14.03
2019-03-21T08:49:41.115Z,14.50
2019-03-21T08:50:46.226Z,14.40
2019-03-21T08:51:51.206Z,14.10
2019-03-21T08:52:56.468Z,13.43
2019-03-21T08:54:02.315Z,15.05
2019-03-21T08:55:07.429Z,14.80
2019-03-21T08:56:12.605Z,14.23
2019-03-21T08:57:17.627Z,14.25
2019-03-21T08:58:22.662Z,13.83
2019-03-21T08:59:27.930Z,12.55
2019-03-21T09:00:34.391Z,14.25
2019-03-21T09:01:39.712Z,12.30
2019-03-21T09:02:44.793Z,13.55
2019-03-21T09:03:49.800Z,13.60
2019-03-21T09:04:54.880Z,13.48
2019-03-21T09:05:59.826Z,14.28
2019-03-21T09:07:04.876Z,13.53
2019-03-21T09:08:09.985Z,14.20
2019-03-21T09:09:15.011Z,13.28
2019-03-21T09:10:20.181Z,14.15
2019-03-21T09:11:25.282Z,13.93
2019-03-21T09:12:30.371Z,13.75
2019-03-21T09:13:35.396Z,13.88
2019-03-21T09:14:40.307Z,13.35
2019-03-21T09:15:45.296Z,12.90
2019-03-21T09:16:50.337Z,13.85
2019-03-21T09:17:55.595Z,13.25
2019-03-21T09:19:00.664Z,14.18
2019-03-21T09:20:06.292Z,13.98
2019-03-21T09:21:19.761Z,13.30
2019-03-21T09:22:18.107Z,13.72
2019-03-21T09:23:23.205Z,13.60
2019-03-21T09:24:28.268Z,14.33
2019-03-21T09:25:33.362Z,13.60
2019-03-21T09:26:38.461Z,13.95
2019-03-21T09:27:43.551Z,13.65
2019-03-21T09:28:48.555Z,13.43
2019-03-21T09:29:54.043Z,14.15
2019-03-21T09:30:59.142Z,13.35
2019-03-21T09:32:16.884Z,14.28
2019-03-21T09:33:12.269Z,14.87
2019-03-21T09:34:17.350Z,15.68
2019-03-21T09:35:22.400Z,15.80
2019-03-21T09:36:27.496Z,15.90
2019-03-21T09:37:32.608Z,15.65
2019-03-21T09:38:38.028Z,16.80
2019-03-21T09:39:43.719Z,15.28
2019-03-21T09:40:49.377Z,16.25
2019-03-21T09:41:57.409Z,15.03
2019-03-21T09:43:03.380Z,15.68
2019-03-21T09:44:09.270Z,18.32
2019-03-21T09:45:17.482Z,16.75
2019-03-21T09:46:23.301Z,15.95
2019-03-21T09:47:28.757Z,15.28
2019-03-21T09:48:34.322Z,14.73
2019-03-21T09:49:39.743Z,15.98
2019-03-21T09:50:45.262Z,16.37
2019-03-21T09:51:51.315Z,15.75
2019-03-21T09:52:56.921Z,15.80
2019-03-21T09:54:09.761Z,16.12
2019-03-21T09:55:11.769Z,16.25
2019-03-21T09:56:16.828Z,15.50
2019-03-21T09:57:21.956Z,15.93
2019-03-21T09:58:26.988Z,15.70
2019-03-21T09:59:32.032Z,15.23
2019-03-21T10:00:37.551Z,15.35
2019-03-21T10:01:42.586Z,15.32
2019-03-21T10:02:47.687Z,14.53
2019-03-21T10:03:52.925Z,14.95
2019-03-21T10:04:58.003Z,14.63
2019-03-21T10:06:03.189Z,15.75
2019-03-21T10:07:08.357Z,15.68
2019-03-21T10:08:13.478Z,14.68
2019-03-21T10:09:18.641Z,14.50
2019-03-21T10:10:29.129Z,13.85
2019-03-21T10:11:34.172Z,14.43
2019-03-21T10:12:39.340Z,13.25
2019-03-21T10:13:44.431Z,13.90
2019-03-21T10:14:49.527Z,14.47
2019-03-21T10:15:54.766Z,14.65
2019-03-21T10:16:59.838Z,15.03
2019-03-21T10:18:05.446Z,13.93
2019-03-21T10:19:12.729Z,13.75
2019-03-21T10:20:17.790Z,12.78
2019-03-21T10:21:22.813Z,12.82
2019-03-21T10:22:27.997Z,13.35
2019-03-21T10:23:33.629Z,12.28
2019-03-21T10:24:41.157Z,12.10
2019-03-21T10:25:46.550Z,13.18
2019-03-21T10:26:51.643Z,13.38
2019-03-21T10:27:57.574Z,12.88
2019-03-21T10:29:02.597Z,12.82
2019-03-21T10:30:15.702Z,13.28
2019-03-21T10:31:20.745Z,13.38
2019-03-21T10:32:25.945Z,12.40
2019-03-21T10:33:30.957Z,11.50
2019-03-21T10:34:35.988Z,11.85
2019-03-21T10:35:41.005Z,11.83
2019-03-21T10:36:46.331Z,11.73
2019-03-21T10:37:52.524Z,12.37
2019-03-21T10:38:58.078Z,11.12
2019-03-21T10:40:03.474Z,10.48
2019-03-21T10:41:08.892Z,12.23
2019-03-21T10:42:14.087Z,12.47
2019-03-21T10:43:19.099Z,12.88
2019-03-21T10:44:25.713Z,12.80
2019-03-21T10:45:30.771Z,11.70
2019-03-21T10:46:35.899Z,12.18
2019-03-21T10:47:41.005Z,12.37
2019-03-21T10:48:46.171Z,12.45
2019-03-21T10:49:51.793Z,12.73
2019-03-21T10:50:57.297Z,12.30
2019-03-21T10:52:02.887Z,12.58
2019-03-21T10:53:12.272Z,13.08
2019-03-21T10:54:19.187Z,12.73
2019-03-21T10:55:28.849Z,12.90
2019-03-21T10:56:33.890Z,13.30
2019-03-21T10:57:39.098Z,13.90
2019-03-21T10:58:44.261Z,13.10
2019-03-21T10:59:49.295Z,13.58
2019-03-21T11:00:54.498Z,13.03
2019-03-21T11:02:07.326Z,12.68
2019-03-21T11:03:06.696Z,13.78
2019-03-21T11:04:12.176Z,12.13
2019-03-21T11:05:17.485Z,13.30
2019-03-21T11:06:22.623Z,12.25
2019-03-21T11:07:27.715Z,11.43
2019-03-21T11:08:32.864Z,12.07
2019-03-21T11:09:37.938Z,12.45
2019-03-21T11:10:42.962Z,12.10
2019-03-21T11:11:47.886Z,11.90
2019-03-21T11:12:52.929Z,11.65
2019-03-21T11:13:57.916Z,12.73
2019-03-21T11:15:02.874Z,11.88
2019-03-21T11:16:07.970Z,10.23
2019-03-21T11:17:13.100Z,10.23
2019-03-21T11:18:18.049Z,10.08
2019-03-21T11:19:23.162Z,9.33
2019-03-21T11:20:30.628Z,9.08
2019-03-21T11:21:35.694Z,10.43
2019-03-21T11:22:40.986Z,10.72
2019-03-21T11:23:46.087Z,10.93
2019-03-21T11:24:51.300Z,10.82
2019-03-21T11:25:56.331Z,11.15
2019-03-21T11:27:01.380Z,10.53
2019-03-21T11:28:07.173Z,11.45
2019-03-21T11:29:12.559Z,10.55
2019-03-21T11:30:20.610Z,10.13
2019-03-21T11:31:25.661Z,10.35
2019-03-21T11:32:30.598Z,10.35
2019-03-21T11:33:35.681Z,10.65
2019-03-21T11:34:43.787Z,9.95
2019-03-21T11:35:48.855Z,10.53
2019-03-21T11:36:54.177Z,10.90
2019-03-21T11:37:59.248Z,11.08
2019-03-21T11:39:06.856Z,10.13
2019-03-21T11:40:11.884Z,8.83
2019-03-21T11:41:16.924Z,9.28
2019-03-21T11:42:22.100Z,9.28
2019-03-21T11:43:27.321Z,10.00
2019-03-21T11:44:32.323Z,10.65
2019-03-21T11:45:37.538Z,10.45
2019-03-21T11:46:42.678Z,10.10
2019-03-21T11:47:47.657Z,10.18
2019-03-21T11:48:52.850Z,10.20
2019-03-21T11:49:57.965Z,8.93
2019-03-21T11:51:03.054Z,9.88
2019-03-21T11:52:17.686Z,9.80
2019-03-21T11:53:15.351Z,8.78
2019-03-21T11:54:20.520Z,10.70
2019-03-21T11:55:25.559Z,10.13
2019-03-21T11:56:30.807Z,10.30
2019-03-21T11:57:36.277Z,9.98
2019-03-21T11:58:41.353Z,10.00
2019-03-21T11:59:51.619Z,10.65
2019-03-21T12:00:53.118Z,10.63
2019-03-21T12:01:58.147Z,10.30
2019-03-21T12:03:04.407Z,9.78
2019-03-21T12:04:09.644Z,9.65
2019-03-21T12:05:15.179Z,9.58
2019-03-21T12:06:20.398Z,8.55
2019-03-21T12:07:25.368Z,9.93
2019-03-21T12:08:30.513Z,9.05
2019-03-21T12:09:35.581Z,8.88
2019-03-21T12:10:40.749Z,9.30
2019-03-21T12:11:45.795Z,9.10
2019-03-21T12:12:50.852Z,9.78
2019-03-21T12:13:56.108Z,9.83
2019-03-21T12:15:01.184Z,11.12
2019-03-21T12:16:06.893Z,9.45
2019-03-21T12:17:14.794Z,10.43
2019-03-21T12:18:19.772Z,9.50
2019-03-21T12:19:24.836Z,8.60
2019-03-21T12:20:36.238Z,9.75
2019-03-21T12:21:41.278Z,9.83
2019-03-21T12:22:47.357Z,9.35
2019-03-21T12:23:52.590Z,9.20
2019-03-21T12:24:57.609Z,10.10
2019-03-21T12:26:02.625Z,10.10
2019-03-21T12:27:07.802Z,10.25
2019-03-21T12:28:13.017Z,9.63
2019-03-21T12:29:17.991Z,9.93
2019-03-21T12:30:39.552Z,10.25
2019-03-21T12:31:44.581Z,10.85
2019-03-21T12:32:49.727Z,10.28
2019-03-21T12:33:54.746Z,10.35
2019-03-21T12:34:59.722Z,11.20
2019-03-21T12:36:04.704Z,10.55
2019-03-21T12:37:09.821Z,11.97
2019-03-21T12:38:14.842Z,11.00
2019-03-21T12:39:19.859Z,10.85
2019-03-21T12:40:24.749Z,10.78
2019-03-21T12:41:29.664Z,11.57
2019-03-21T12:42:34.738Z,11.50
2019-03-21T12:43:39.784Z,10.65
2019-03-21T12:44:44.826Z,10.98
2019-03-21T12:45:49.937Z,11.15
2019-03-21T12:46:55.031Z,11.83
2019-03-21T12:47:59.969Z,11.08
2019-03-21T12:49:05.191Z,10.08
2019-03-21T12:50:10.510Z,10.55
2019-03-21T12:51:15.556Z,10.50
2019-03-21T12:52:20.661Z,11.08
2019-03-21T12:53:25.867Z,11.45
2019-03-21T12:54:31.309Z,11.33
2019-03-21T12:55:36.334Z,12.20
2019-03-21T12:56:41.316Z,11.97
2019-03-21T12:57:46.376Z,11.73
2019-03-21T12:58:54.427Z,11.57
2019-03-21T12:59:59.436Z,10.65
2019-03-21T13:01:04.981Z,10.30
2019-03-21T13:02:10.084Z,10.35
2019-03-21T13:03:15.209Z,10.43
2019-03-21T13:04:20.300Z,10.65
2019-03-21T13:05:29.013Z,10.78
2019-03-21T13:06:34.006Z,10.60
2019-03-21T13:07:39.111Z,10.88
2019-03-21T13:08:44.234Z,10.60
2019-03-21T13:09:51.383Z,11.43
2019-03-21T13:11:00.710Z,10.43
2019-03-21T13:12:05.199Z,10.28
2019-03-21T13:13:10.253Z,9.55
2019-03-21T13:14:15.626Z,10.05
2019-03-21T13:15:29.445Z,10.53
2019-03-21T13:16:27.477Z,9.65
2019-03-21T13:17:32.825Z,9.50
2019-03-21T13:18:37.882Z,8.85
2019-03-21T13:19:43.072Z,8.95
2019-03-21T13:20:48.309Z,9.55
2019-03-21T13:21:53.349Z,9.40
2019-03-21T13:22:59.001Z,8.88
2019-03-21T13:24:04.387Z,9.20
2019-03-21T13:25:12.598Z,9.23
2019-03-21T13:26:18.028Z,9.85
2019-03-21T13:27:23.560Z,9.40
2019-03-21T13:28:29.009Z,10.72
2019-03-21T13:29:34.446Z,8.70
2019-03-21T13:30:40.234Z,8.83
2019-03-21T13:31:46.356Z,7.90
2019-03-21T13:32:51.831Z,9.55
2019-03-21T13:33:57.567Z,9.33
2019-03-21T13:35:03.184Z,10.85
2019-03-21T13:36:08.912Z,9.65
2019-03-21T13:37:15.498Z,9.03
2019-03-21T13:38:20.956Z,8.93
2019-03-21T13:39:26.310Z,8.83
2019-03-21T13:40:31.827Z,9.43
2019-03-21T13:41:37.174Z,8.85
2019-03-21T13:42:42.735Z,9.35
2019-03-21T13:43:48.215Z,9.48
2019-03-21T13:44:53.650Z,8.60
2019-03-21T13:45:59.668Z,8.65
2019-03-21T13:47:05.024Z,8.45
2019-03-21T13:48:10.506Z,8.48
2019-03-21T13:49:16.575Z,8.98
2019-03-21T13:50:22.095Z,8.10
2019-03-21T13:51:27.431Z,9.40
2019-03-21T13:52:32.921Z,8.68
2019-03-21T13:53:38.400Z,9.43
2019-03-21T13:54:43.968Z,9.05
2019-03-21T13:55:50.446Z,9.15
2019-03-21T13:56:55.755Z,9.68
2019-03-21T13:58:03.912Z,8.60
2019-03-21T13:59:10.338Z,9.35
2019-03-21T14:00:19.668Z,8.95
2019-03-21T14:01:29.873Z,9.05
2019-03-21T14:02:35.311Z,10.48
2019-03-21T14:03:40.886Z,10.00
2019-03-21T14:04:47.053Z,9.53
2019-03-21T14:05:55.117Z,8.95
2019-03-21T14:06:59.792Z,9.23
2019-03-21T14:08:05.341Z,8.58
2019-03-21T14:09:11.139Z,8.45
2019-03-21T14:10:16.947Z,8.83
2019-03-21T14:11:22.664Z,7.83
2019-03-21T14:14:09.819Z,9.50
2019-03-21T14:15:18.084Z,9.53